createdAt,value
2022-11-16T00:05:42.803Z,98447.91
2022-11-16T00:08:14.361Z,98451.75
2022-11-16T00:19:40.554Z,98444.34
2022-11-16T00:22:09.789Z,98449.19
2022-11-16T00:30:45.140Z,98458.03
2022-11-16T00:33:16.372Z,98451.50
2022-11-16T00:35:46.700Z,98456.13
2022-11-16T00:38:17.859Z,98454.88
2022-11-16T00:40:48.420Z,98452.94
2022-11-16T00:43:17.390Z,98454.59
2022-11-16T00:45:47.560Z,98456.38
2022-11-16T00:48:15.935Z,98462.13
2022-11-16T00:50:45.717Z,98456.66
2022-11-16T00:53:15.093Z,98462.25
2022-11-16T00:55:45.381Z,98462.06
2022-11-16T00:58:15.787Z,98468.09
2022-11-16T01:00:44.884Z,98466.03
2022-11-16T01:03:16.979Z,98461.81
2022-11-16T01:05:45.601Z,98461.06
2022-11-16T01:08:14.178Z,98461.06
2022-11-16T01:10:43.278Z,98449.47
2022-11-16T01:13:11.155Z,98453.28
2022-11-16T01:15:40.079Z,98450.72
2022-11-16T01:18:09.839Z,98447.47
2022-11-16T01:20:41.530Z,98450.47
2022-11-16T01:23:09.989Z,98441.84
2022-11-16T01:25:40.239Z,98452.06
2022-11-16T01:28:08.820Z,98446.81
2022-11-16T01:30:38.463Z,98456.91
2022-11-16T01:33:06.826Z,98454.47
2022-11-16T01:35:36.389Z,98455.88
2022-11-16T01:38:06.985Z,98457.44
2022-11-16T01:40:35.330Z,98447.44
2022-11-16T01:43:03.647Z,98457.72
2022-11-16T01:45:36.982Z,98459.25
2022-11-16T01:48:05.758Z,98457.25
2022-11-16T01:50:34.485Z,98459.44
2022-11-16T01:53:04.182Z,98454.81
2022-11-16T01:55:35.231Z,98460.63
2022-11-16T01:58:05.581Z,98459.78
2022-11-16T02:00:34.500Z,98464.84
2022-11-16T02:03:03.810Z,98465.00
2022-11-16T02:05:34.478Z,98460.03
2022-11-16T02:11:17.513Z,98462.34
2022-11-16T02:13:51.652Z,98468.38
2022-11-16T02:16:26.562Z,98461.56
2022-11-16T02:19:01.698Z,98472.13
2022-11-16T02:24:50.242Z,98474.78
2022-11-16T02:27:40.282Z,98481.81
2022-11-16T02:30:10.914Z,98476.41
2022-11-16T02:32:47.720Z,98474.44
2022-11-16T02:35:19.579Z,98487.13
2022-11-16T02:37:50.419Z,98482.09
2022-11-16T02:40:21.551Z,98485.94
2022-11-16T02:42:53.978Z,98484.91
2022-11-16T02:45:26.026Z,98485.50
2022-11-16T02:47:56.379Z,98475.09
2022-11-16T02:50:27.852Z,98486.16
2022-11-16T02:52:57.084Z,98483.53
2022-11-16T02:55:25.883Z,98487.72
2022-11-16T02:57:58.051Z,98495.75
2022-11-16T03:00:31.128Z,98496.94
2022-11-16T03:03:05.688Z,98497.34
2022-11-16T03:05:36.054Z,98502.63
2022-11-16T03:08:09.711Z,98500.63
2022-11-16T03:10:58.994Z,98509.59
2022-11-16T03:13:31.084Z,98509.00
2022-11-16T03:16:02.725Z,98509.19
2022-11-16T03:18:32.152Z,98511.38
2022-11-16T03:21:06.606Z,98510.38
2022-11-16T03:23:35.207Z,98510.16
2022-11-16T03:26:07.191Z,98509.78
2022-11-16T03:28:38.789Z,98507.78
2022-11-16T03:31:13.478Z,98516.03
2022-11-16T03:33:45.671Z,98513.41
2022-11-16T03:36:18.515Z,98514.25
2022-11-16T03:38:51.044Z,98511.66
2022-11-16T03:41:21.308Z,98513.84
2022-11-16T03:43:50.834Z,98522.06
2022-11-16T03:46:21.481Z,98522.06
2022-11-16T03:48:50.174Z,98523.66
2022-11-16T03:51:18.921Z,98522.63
2022-11-16T03:53:47.912Z,98523.25
2022-11-16T03:56:16.811Z,98533.06
2022-11-16T03:58:45.332Z,98528.47
2022-11-16T04:01:14.448Z,98526.09
2022-11-16T04:03:44.990Z,98533.72
2022-11-16T04:06:52.841Z,98533.72
2022-11-16T04:09:47.726Z,98535.69
2022-11-16T04:12:33.571Z,98533.72
2022-11-16T04:15:19.774Z,98533.00
2022-11-16T04:18:05.671Z,98536.41
2022-11-16T04:20:53.152Z,98529.22
2022-11-16T04:23:40.085Z,98537.00
2022-11-16T04:26:09.360Z,98538.81
2022-11-16T04:28:38.628Z,98539.00
2022-11-16T04:31:25.019Z,98534.63
2022-11-16T04:34:12.929Z,98541.88
2022-11-16T04:37:00.549Z,98552.06
2022-11-16T04:39:29.250Z,98555.84
2022-11-16T04:42:14.884Z,98549.66
2022-11-16T04:45:00.434Z,98550.84
2022-11-16T04:47:31.120Z,98554.03
2022-11-16T04:50:00.458Z,98553.25
2022-11-16T04:52:32.443Z,98555.91
2022-11-16T04:55:01.815Z,98556.88
2022-11-16T04:57:31.658Z,98564.69
2022-11-16T05:00:00.246Z,98560.09
2022-11-16T05:02:29.316Z,98565.47
2022-11-16T05:04:58.426Z,98566.28
2022-11-16T05:07:26.924Z,98565.66
2022-11-16T05:09:57.641Z,98571.31
2022-11-16T05:12:27.142Z,98576.13
2022-11-16T05:14:56.704Z,98568.94
2022-11-16T05:17:27.479Z,98580.53
2022-11-16T05:20:13.759Z,98577.34
2022-11-16T05:22:42.761Z,98580.94
2022-11-16T05:25:13.408Z,98579.13
2022-11-16T05:27:42.380Z,98578.31
2022-11-16T05:30:11.692Z,98582.53
2022-11-16T05:32:42.896Z,98587.72
2022-11-16T05:35:12.015Z,98579.50
2022-11-16T05:37:40.674Z,98575.75
2022-11-16T05:40:11.201Z,98576.91
2022-11-16T05:42:42.172Z,98583.56
2022-11-16T05:45:11.604Z,98580.53
2022-11-16T05:47:40.146Z,98587.94
2022-11-16T05:50:09.745Z,98581.72
2022-11-16T05:52:39.231Z,98588.53
2022-11-16T05:55:08.286Z,98586.94
2022-11-16T05:57:37.488Z,98590.13
2022-11-16T06:00:11.020Z,98586.31
2022-11-16T06:02:40.764Z,98594.53
2022-11-16T06:05:10.601Z,98587.91
2022-11-16T06:07:40.112Z,98594.53
2022-11-16T06:10:10.730Z,98592.91
2022-11-16T06:12:41.227Z,98599.25
2022-11-16T06:15:14.246Z,98599.44
2022-11-16T06:17:43.522Z,98604.44
2022-11-16T06:20:14.293Z,98606.84
2022-11-16T06:22:43.901Z,98611.47
2022-11-16T06:25:13.710Z,98612.66
2022-11-16T06:27:43.617Z,98616.03
2022-11-16T06:30:14.321Z,98612.88
2022-11-16T06:32:45.382Z,98615.66
2022-11-16T06:35:17.658Z,98612.84
2022-11-16T06:37:46.733Z,98612.84
2022-11-16T06:40:15.607Z,98615.63
2022-11-16T06:42:44.185Z,98607.81
2022-11-16T06:45:16.010Z,98606.63
2022-11-16T06:47:45.224Z,98607.81
2022-11-16T06:50:13.964Z,98615.25
2022-11-16T06:52:43.146Z,98610.84
2022-11-16T06:55:12.929Z,98614.47
2022-11-16T06:57:44.911Z,98616.09
2022-11-16T07:00:15.955Z,98578.75
2022-11-16T07:02:44.823Z,98622.16
2022-11-16T07:05:13.680Z,98618.53
2022-11-16T07:07:42.954Z,98613.94
2022-11-16T07:10:12.043Z,98615.16
2022-11-16T07:12:41.856Z,98618.53
2022-11-16T07:15:11.445Z,98622.75
2022-11-16T07:17:42.620Z,98627.78
2022-11-16T07:20:12.418Z,98630.38
2022-11-16T07:22:46.230Z,98629.56
2022-11-16T07:25:17.893Z,98618.53
2022-11-16T07:27:47.045Z,98635.00
2022-11-16T07:30:16.005Z,98620.75
2022-11-16T07:32:47.910Z,98623.34
2022-11-16T07:35:19.847Z,98623.53
2022-11-16T07:37:50.650Z,98617.09
2022-11-16T07:40:20.027Z,98618.47
2022-11-16T07:42:49.613Z,98623.66
2022-11-16T07:45:18.567Z,98633.81
2022-11-16T07:47:54.246Z,98626.91
2022-11-16T07:50:23.063Z,98628.66
2022-11-16T07:52:53.224Z,98625.19
2022-11-16T07:55:23.471Z,98625.81
2022-11-16T07:57:54.480Z,98621.06
2022-11-16T08:00:27.883Z,98621.00
2022-11-16T08:03:02.383Z,98624.59
2022-11-16T08:05:31.677Z,98614.47
2022-11-16T08:08:00.798Z,98623.53
2022-11-16T08:10:30.358Z,98622.38
2022-11-16T08:13:00.290Z,98617.00
2022-11-16T08:15:29.147Z,98618.25
2022-11-16T08:18:01.894Z,98617.19
2022-11-16T08:20:32.851Z,98618.53
2022-11-16T08:23:08.134Z,98626.53
2022-11-16T08:25:37.297Z,98635.03
2022-11-16T08:28:08.028Z,98628.81
2022-11-16T08:30:41.977Z,98633.91
2022-11-16T08:33:18.075Z,98636.69
2022-11-16T08:35:49.947Z,98635.91
2022-11-16T08:38:20.335Z,98608.28
2022-11-16T08:40:51.621Z,98634.81
2022-11-16T08:43:25.912Z,98635.41
2022-11-16T08:45:56.545Z,98634.88
2022-11-16T08:48:32.679Z,98633.72
2022-11-16T08:51:21.564Z,98633.84
2022-11-16T08:53:53.761Z,98632.25
2022-11-16T08:56:22.792Z,98629.22
2022-11-16T08:58:58.904Z,98640.31
2022-11-16T09:01:32.061Z,98641.75
2022-11-16T09:04:05.858Z,98634.09
2022-11-16T09:06:39.394Z,98645.84
2022-11-16T09:09:15.488Z,98643.88
2022-11-16T09:11:47.540Z,98643.47
2022-11-16T09:14:17.904Z,98642.03
2022-11-16T09:16:50.108Z,98643.22
2022-11-16T09:19:25.915Z,98644.03
2022-11-16T09:21:54.837Z,98638.53
2022-11-16T09:24:23.541Z,98639.34
2022-11-16T09:26:54.920Z,98641.09
2022-11-16T09:29:24.019Z,98647.06
2022-11-16T09:31:53.131Z,98645.97
2022-11-16T09:34:23.867Z,98642.53
2022-11-16T09:36:52.865Z,98641.59
2022-11-16T09:39:37.358Z,98639.94
2022-11-16T09:42:22.035Z,98644.25
2022-11-16T09:45:09.252Z,98639.94
2022-11-16T09:47:43.407Z,98635.50
2022-11-16T09:50:21.377Z,98638.16
2022-11-16T09:52:53.097Z,98637.75
2022-11-16T09:55:27.074Z,98641.56
2022-11-16T09:57:58.025Z,98638.88
2022-11-16T10:00:29.208Z,98636.84
2022-11-16T10:03:02.289Z,98635.69
2022-11-16T10:05:36.657Z,98640.63
2022-11-16T10:08:09.847Z,98639.19
2022-11-16T10:10:40.213Z,98640.19
2022-11-16T10:13:14.590Z,98631.31
2022-11-16T10:15:59.540Z,98630.53
2022-11-16T10:18:49.188Z,98635.69
2022-11-16T10:21:35.546Z,98638.47
2022-11-16T10:24:22.761Z,98639.19
2022-11-16T10:26:56.527Z,98626.91
2022-11-16T10:29:35.409Z,98633.13
2022-11-16T10:32:18.927Z,98636.91
2022-11-16T10:34:52.444Z,98634.38
2022-11-16T10:37:26.038Z,98643.28
2022-11-16T10:39:55.287Z,98642.53
2022-11-16T10:42:29.679Z,98642.06
2022-11-16T10:45:02.524Z,98638.41
2022-11-16T10:47:38.754Z,98643.66
2022-11-16T10:50:16.799Z,98644.94
2022-11-16T10:52:46.974Z,98647.06
2022-11-16T10:55:17.411Z,98649.09
2022-11-16T10:57:58.067Z,98639.25
2022-11-16T11:00:38.110Z,98647.94
2022-11-16T11:03:11.135Z,98652.78
2022-11-16T11:05:48.970Z,98648.22
2022-11-16T11:08:31.367Z,98648.34
2022-11-16T11:11:28.632Z,98648.72
2022-11-16T11:14:06.495Z,98654.31
2022-11-16T11:16:35.683Z,98655.00
2022-11-16T11:19:19.875Z,98658.50
2022-11-16T11:21:51.397Z,98651.44
2022-11-16T11:24:49.031Z,98652.34
2022-11-16T11:27:24.061Z,98645.16
2022-11-16T11:29:54.525Z,98648.81
2022-11-16T11:32:31.058Z,98653.00
2022-11-16T11:35:07.842Z,98644.34
2022-11-16T11:37:41.317Z,98650.47
2022-11-16T11:40:24.722Z,98646.72
2022-11-16T11:42:59.565Z,98653.09
2022-11-16T11:45:44.782Z,98650.06
2022-11-16T11:48:24.791Z,98650.44
2022-11-16T11:50:58.120Z,98664.59
2022-11-16T11:53:39.503Z,98656.75
2022-11-16T11:56:13.398Z,98654.72
2022-11-16T11:58:44.991Z,98658.28
2022-11-16T12:01:25.575Z,98660.53
2022-11-16T12:04:10.665Z,98653.00
2022-11-16T12:06:43.889Z,98653.25
2022-11-16T12:09:20.370Z,98652.19
2022-11-16T12:12:00.194Z,98660.38
2022-11-16T12:14:36.931Z,98648.44
2022-11-16T12:17:10.153Z,98650.88
2022-11-16T12:19:59.594Z,98645.13
2022-11-16T12:22:45.903Z,98637.13
2022-11-16T12:25:20.450Z,98628.91
2022-11-16T12:27:53.657Z,98627.69
2022-11-16T12:30:24.533Z,98638.72
2022-11-16T12:32:58.604Z,98628.31
2022-11-16T12:35:32.825Z,98621.31
2022-11-16T12:38:06.683Z,98633.38
2022-11-16T12:40:44.530Z,98629.63
2022-11-16T12:43:19.669Z,98629.69
2022-11-16T12:46:10.424Z,98627.91
2022-11-16T12:49:00.218Z,98626.03
2022-11-16T12:51:34.519Z,98591.66
2022-11-16T12:54:14.065Z,98622.09
2022-11-16T12:56:50.019Z,98627.75
2022-11-16T12:59:26.926Z,98623.78
2022-11-16T13:02:02.086Z,98631.03
2022-11-16T13:04:35.345Z,98632.47
2022-11-16T13:07:10.910Z,98635.91
2022-11-16T13:09:43.121Z,98636.59
2022-11-16T13:12:14.389Z,98629.41
2022-11-16T13:14:47.559Z,98634.81
2022-11-16T13:17:22.372Z,98630.03
2022-11-16T13:20:00.684Z,98629.47
2022-11-16T13:22:29.860Z,98632.13
2022-11-16T13:25:05.917Z,98631.97
2022-11-16T13:27:39.467Z,98637.59
2022-11-16T13:30:20.396Z,98638.78
2022-11-16T13:33:00.132Z,98645.81
2022-11-16T13:35:29.844Z,98645.44
2022-11-16T13:37:58.902Z,98646.81
2022-11-16T13:40:29.319Z,98648.81
2022-11-16T13:43:16.089Z,98640.41
2022-11-16T13:45:53.381Z,98646.22
2022-11-16T13:48:24.714Z,98646.22
2022-11-16T13:50:58.703Z,98644.00
2022-11-16T13:54:25.237Z,98614.22
2022-11-16T13:56:21.795Z,98650.63
2022-11-16T13:58:55.503Z,98653.03
2022-11-16T14:01:29.147Z,98649.44
2022-11-16T14:04:30.980Z,98653.22
2022-11-16T14:07:03.064Z,98655.84
2022-11-16T14:09:52.467Z,98660.06
2022-11-16T14:12:40.879Z,98662.22
2022-11-16T14:15:18.502Z,98656.63
2022-11-16T14:17:59.798Z,98652.63
2022-11-16T14:20:43.932Z,98651.03
2022-11-16T14:23:27.781Z,98662.25
2022-11-16T14:25:59.580Z,98674.47
2022-11-16T14:28:38.121Z,98668.66
2022-11-16T14:31:09.617Z,98665.22
2022-11-16T14:33:41.748Z,98666.44
2022-11-16T14:36:11.482Z,98673.44
2022-11-16T14:38:41.231Z,98669.22
2022-11-16T14:41:15.342Z,98673.59
2022-11-16T14:43:46.332Z,98675.38
2022-11-16T14:46:19.711Z,98644.50
2022-11-16T14:48:51.382Z,98678.34
2022-11-16T14:51:22.693Z,98679.94
2022-11-16T14:53:54.303Z,98686.31
2022-11-16T14:56:23.334Z,98686.88
2022-11-16T14:58:56.135Z,98687.47
2022-11-16T15:01:27.161Z,98681.44
2022-11-16T15:04:02.556Z,98686.22
2022-11-16T15:06:32.621Z,98675.22
2022-11-16T15:09:02.371Z,98676.22
2022-11-16T15:11:46.619Z,98677.19
2022-11-16T15:14:18.276Z,98672.41
2022-11-16T15:16:50.818Z,98676.63
2022-11-16T15:19:21.128Z,98677.81
2022-11-16T15:21:54.050Z,98675.22
2022-11-16T15:24:30.861Z,98642.59
2022-11-16T15:27:04.699Z,98670.47
2022-11-16T15:29:33.825Z,98671.00
2022-11-16T15:32:03.363Z,98674.19
2022-11-16T15:34:34.609Z,98675.19
2022-11-16T15:37:03.439Z,98664.19
2022-11-16T15:39:35.799Z,98671.81
2022-11-16T15:42:04.940Z,98670.81
2022-11-16T15:44:35.481Z,98673.19
2022-11-16T15:47:07.065Z,98672.78
2022-11-16T15:49:40.252Z,98664.41
2022-11-16T15:52:09.397Z,98665.81
2022-11-16T15:54:53.018Z,98676.22
2022-11-16T15:57:23.085Z,98667.63
2022-11-16T15:59:57.443Z,98669.41
2022-11-16T16:02:28.289Z,98663.41
2022-11-16T16:04:58.996Z,98661.63
2022-11-16T16:07:40.567Z,98658.22
2022-11-16T16:10:25.987Z,98666.44
2022-11-16T16:12:55.934Z,98658.47
2022-11-16T16:15:26.311Z,98651.66
2022-11-16T16:17:55.569Z,98656.41
2022-11-16T16:20:26.550Z,98662.19
2022-11-16T16:22:55.266Z,98658.03
2022-11-16T16:25:32.325Z,98654.44
2022-11-16T16:28:01.465Z,98627.38
2022-11-16T16:30:32.037Z,98653.03
2022-11-16T16:33:02.246Z,98656.25
2022-11-16T16:35:32.521Z,98646.84
2022-11-16T16:38:03.795Z,98652.22
2022-11-16T16:40:36.555Z,98655.22
2022-11-16T16:43:05.057Z,98664.22
2022-11-16T16:45:37.344Z,98651.84
2022-11-16T16:48:06.673Z,98656.41
2022-11-16T16:50:37.642Z,98658.47
2022-11-16T16:53:06.766Z,98650.47
2022-11-16T16:55:37.856Z,98650.47
2022-11-16T16:58:07.418Z,98654.44
2022-11-16T17:00:36.661Z,98654.25
2022-11-16T17:03:05.643Z,98654.25
2022-11-16T17:05:35.565Z,98649.22
2022-11-16T17:08:06.476Z,98650.06
2022-11-16T17:10:36.030Z,98648.09
2022-11-16T17:13:05.472Z,98643.28
2022-11-16T17:15:35.594Z,98647.06
2022-11-16T17:18:04.129Z,98641.44
2022-11-16T17:20:33.427Z,98646.47
2022-11-16T17:23:02.120Z,98638.22
2022-11-16T17:25:33.270Z,98636.41
2022-11-16T17:28:02.697Z,98634.81
2022-11-16T17:30:32.012Z,98638.63
2022-11-16T17:33:01.702Z,98638.78
2022-11-16T17:35:30.905Z,98635.41
2022-11-16T17:38:00.064Z,98637.63
2022-11-16T17:40:28.715Z,98634.22
2022-11-16T17:42:59.608Z,98635.63
2022-11-16T17:45:28.201Z,98637.03
2022-11-16T17:47:57.220Z,98631.22
2022-11-16T17:50:26.609Z,98629.59
2022-11-16T17:52:55.524Z,98633.59
2022-11-16T17:55:28.997Z,98625.41
2022-11-16T17:57:59.752Z,98629.25
2022-11-16T18:00:28.409Z,98629.44
2022-11-16T18:02:57.623Z,98620.25
2022-11-16T18:05:28.339Z,98617.06
2022-11-16T18:07:59.011Z,98618.91
2022-11-16T18:10:27.869Z,98624.91
2022-11-16T18:12:56.661Z,98620.16
2022-11-16T18:15:28.961Z,98624.75
2022-11-16T18:17:59.227Z,98614.13
2022-11-16T18:20:28.722Z,98610.16
2022-11-16T18:22:58.549Z,98609.34
2022-11-16T18:25:27.430Z,98605.72
2022-11-16T18:27:57.302Z,98609.16
2022-11-16T18:30:28.838Z,98605.13
2022-11-16T18:32:57.998Z,98608.13
2022-11-16T18:35:27.743Z,98607.13
2022-11-16T18:37:56.483Z,98602.94
2022-11-16T18:40:25.595Z,98599.91
2022-11-16T18:42:55.602Z,98602.50
2022-11-16T18:45:26.789Z,98599.69
2022-11-16T18:47:58.026Z,98596.88
2022-11-16T18:50:27.747Z,98598.88
2022-11-16T18:52:57.738Z,98588.28
2022-11-16T18:55:26.959Z,98591.44
2022-11-16T18:57:55.724Z,98584.06
2022-11-16T19:00:24.398Z,98587.22
2022-11-16T19:02:53.168Z,98585.66
2022-11-16T19:05:24.397Z,98589.28
2022-11-16T19:07:53.121Z,98585.88
2022-11-16T19:10:22.699Z,98582.88
2022-11-16T19:12:51.235Z,98592.09
2022-11-16T19:15:20.184Z,98590.09
2022-11-16T19:18:19.414Z,98592.94
2022-11-16T19:20:38.696Z,98596.94
2022-11-16T19:23:07.182Z,98587.97
2022-11-16T19:25:36.315Z,98589.97
2022-11-16T19:28:05.613Z,98588.59
2022-11-16T19:30:34.313Z,98589.00
2022-11-16T19:33:04.830Z,98590.59
2022-11-16T19:35:34.336Z,98581.78
2022-11-16T19:38:05.334Z,98584.59
2022-11-16T19:40:34.324Z,98583.75
2022-11-16T19:43:04.226Z,98585.56
2022-11-16T19:45:33.154Z,98578.94
2022-11-16T19:48:01.912Z,98578.53
2022-11-16T19:50:32.151Z,98579.94
2022-11-16T19:53:00.794Z,98577.91
2022-11-16T19:55:31.229Z,98575.13
2022-11-16T19:57:59.539Z,98577.72
2022-11-16T20:00:28.131Z,98573.31
2022-11-16T20:02:58.462Z,98575.53
2022-11-16T20:05:30.476Z,98570.75
2022-11-16T20:07:59.317Z,98574.97
2022-11-16T20:10:31.651Z,98575.97
2022-11-16T20:13:01.761Z,98575.19
2022-11-16T20:15:30.782Z,98566.16
2022-11-16T20:18:00.129Z,98566.78
2022-11-16T20:20:29.299Z,98560.56
2022-11-16T20:22:59.134Z,98572.56
2022-11-16T20:25:30.047Z,98568.97
2022-11-16T20:27:59.177Z,98568.19
2022-11-16T20:30:29.781Z,98562.97
2022-11-16T20:32:58.301Z,98565.75
2022-11-16T20:35:27.206Z,98560.78
2022-11-16T20:37:55.828Z,98556.56
2022-11-16T20:40:24.670Z,98548.56
2022-11-16T20:42:53.143Z,98550.56
2022-11-16T20:45:22.364Z,98548.16
2022-11-16T20:47:52.716Z,98543.75
2022-11-16T20:50:22.268Z,98545.56
2022-11-16T20:52:52.843Z,98535.75
2022-11-16T20:55:21.868Z,98542.75
2022-11-16T20:57:50.553Z,98540.53
2022-11-16T21:00:20.194Z,98536.94
2022-11-16T21:02:49.320Z,98537.31
2022-11-16T21:05:19.302Z,98537.31
2022-11-16T21:07:47.734Z,98541.31
2022-11-16T21:10:22.780Z,98541.50
2022-11-16T21:13:08.271Z,98543.31
2022-11-16T21:15:37.128Z,98543.47
2022-11-16T21:18:05.596Z,98539.69
2022-11-16T21:20:35.363Z,98542.09
2022-11-16T21:23:04.361Z,98537.09
2022-11-16T21:25:33.110Z,98533.50
2022-11-16T21:28:02.361Z,98531.91
2022-11-16T21:30:31.356Z,98542.91
2022-11-16T21:32:59.967Z,98532.69
2022-11-16T21:35:28.695Z,98520.50
2022-11-16T21:37:59.052Z,98524.88
2022-11-16T21:40:27.564Z,98520.66
2022-11-16T21:42:56.286Z,98525.09
2022-11-16T21:45:25.205Z,98518.47
2022-11-16T21:47:53.597Z,98521.88
2022-11-16T21:50:31.497Z,98522.47
2022-11-16T21:53:03.117Z,98523.66
2022-11-16T21:55:31.555Z,98515.63
2022-11-16T21:58:00.317Z,98512.81
2022-11-16T22:00:30.284Z,98518.41
2022-11-16T22:02:59.303Z,98518.59
2022-11-16T22:05:45.492Z,98514.56
2022-11-16T22:08:15.739Z,98522.13
2022-11-16T22:10:44.787Z,98515.72
2022-11-16T22:13:13.242Z,98517.50
2022-11-16T22:15:42.055Z,98514.28
2022-11-16T22:18:10.305Z,98512.69
2022-11-16T22:20:39.285Z,98521.88
2022-11-16T22:23:07.988Z,98522.09
2022-11-16T22:25:42.185Z,98514.50
2022-11-16T22:28:20.538Z,98524.34
2022-11-16T22:30:51.993Z,98515.56
2022-11-16T22:33:22.411Z,98508.94
2022-11-16T22:35:50.834Z,98507.13
2022-11-16T22:38:19.200Z,98503.16
2022-11-16T22:40:53.272Z,98494.72
2022-11-16T22:43:22.589Z,98488.72
2022-11-16T22:45:53.132Z,98488.91
2022-11-16T22:48:22.032Z,98494.50
2022-11-16T22:50:50.783Z,98493.47
2022-11-16T22:53:19.596Z,98492.09
2022-11-16T22:55:47.714Z,98488.50
2022-11-16T22:58:18.306Z,98487.25
2022-11-16T23:00:46.625Z,98485.47
2022-11-16T23:03:18.022Z,98487.69
2022-11-16T23:05:47.097Z,98487.50
2022-11-16T23:08:17.132Z,98482.09
2022-11-16T23:10:59.247Z,98480.28
2022-11-16T23:13:47.957Z,98482.09
2022-11-16T23:16:18.667Z,98488.78
2022-11-16T23:18:47.806Z,98479.94
2022-11-16T23:21:48.310Z,98487.59
2022-11-16T23:24:34.129Z,98486.75
2022-11-16T23:27:22.350Z,98480.78
2022-11-16T23:29:53.790Z,98479.78
2022-11-16T23:32:22.255Z,98478.41
2022-11-16T23:34:51.149Z,98472.59
2022-11-16T23:37:20.545Z,98470.78
2022-11-16T23:39:49.402Z,98473.19
2022-11-16T23:42:41.269Z,98470.59
2022-11-16T23:45:11.773Z,98472.78
2022-11-16T23:47:41.540Z,98464.56
2022-11-16T23:50:11.396Z,98461.94
2022-11-16T23:52:39.720Z,98457.00
2022-11-16T23:55:08.549Z,98459.19
2022-11-16T23:57:37.698Z,98455.16
